Terminal Aerodrome Forecast
Issued by NWS Upton, NY

Home | Current Version | Previous Version | Text Only | Print | Product List | Glossary On
Versions: 1 2 3 4 5 6 7 8 9 10 11 12 13 14 15 16 17 18 19 20 21 22 23 24 25
210
FTUS41 KOKX 251122
TAFISP
TAF
KISP 251122Z 2512/2612 22007KT 6SM -RA VCTS SCT060CB BKN120
     FM251400 21008KT P6SM BKN040 BKN070
     FM251700 18009KT P6SM BKN040 BKN070
     FM252100 18012KT P6SM BKN070 BKN250
      TEMPO 2521/2601 4SM TSRA BKN040CB
     FM260100 23008KT P6SM BKN090 BKN250 PROB30 2601/2604 4SM TSRA
      BKN040CB BKN090
     FM260400 26005KT P6SM FEW130 SCT250
     FM260800 VRB04KT 5SM BR SCT250=

USA.gov is the U.S. government's official web portal to all federal, state and local government web resources and services.